sensor_id;sensor_type;location;lat;lon;timestamp;pressure;altitude;pressure_sealevel;temperature;humidity
26083;BME280;13848;49.018;12.078;2024-01-30T00:01:46;99175.53;;;0.87;77.92
26083;BME280;13848;49.018;12.078;2024-01-30T00:04:12;99178.28;;;0.86;77.45
26083;BME280;13848;49.018;12.078;2024-01-30T00:06:38;99176.88;;;0.59;78.04
26083;BME280;13848;49.018;12.078;2024-01-30T00:09:04;99177.38;;;0.64;78.48
26083;BME280;13848;49.018;12.078;2024-01-30T00:11:29;99171.56;;;0.59;78.23
26083;BME280;13848;49.018;12.078;2024-01-30T00:13:57;99175.06;;;0.60;78.89
26083;BME280;13848;49.018;12.078;2024-01-30T00:16:23;99175.56;;;0.53;79.13
26083;BME280;13848;49.018;12.078;2024-01-30T00:18:50;99168.44;;;0.54;78.61
26083;BME280;13848;49.018;12.078;2024-01-30T00:21:16;99166.00;;;0.51;78.72
26083;BME280;13848;49.018;12.078;2024-01-30T00:23:41;99166.00;;;0.51;78.62
26083;BME280;13848;49.018;12.078;2024-01-30T00:26:07;99168.19;;;0.46;78.09
26083;BME280;13848;49.018;12.078;2024-01-30T00:28:33;99174.09;;;0.49;78.97
26083;BME280;13848;49.018;12.078;2024-01-30T00:31:01;99176.28;;;0.44;78.12
26083;BME280;13848;49.018;12.078;2024-01-30T00:33:27;99164.09;;;0.31;79.38
26083;BME280;13848;49.018;12.078;2024-01-30T00:35:52;99174.09;;;0.38;79.67
26083;BME280;13848;49.018;12.078;2024-01-30T00:38:18;99171.09;;;0.43;79.61
26083;BME280;13848;49.018;12.078;2024-01-30T00:40:44;99169.06;;;0.24;80.45
26083;BME280;13848;49.018;12.078;2024-01-30T00:43:10;99162.41;;;0.07;80.55
26083;BME280;13848;49.018;12.078;2024-01-30T00:45:36;99164.31;;;0.16;81.31
26083;BME280;13848;49.018;12.078;2024-01-30T00:48:04;99162.41;;;0.30;79.35
26083;BME280;13848;49.018;12.078;2024-01-30T00:50:30;99160.25;;;0.23;80.27
26083;BME280;13848;49.018;12.078;2024-01-30T00:52:56;99165.66;;;0.22;79.99
26083;BME280;13848;49.018;12.078;2024-01-30T00:55:22;99168.44;;;0.20;80.35
26083;BME280;13848;49.018;12.078;2024-01-30T00:57:48;99168.66;;;0.17;80.12
26083;BME280;13848;49.018;12.078;2024-01-30T01:00:14;99164.91;;;-0.03;80.98
26083;BME280;13848;49.018;12.078;2024-01-30T01:02:40;99166.25;;;0.03;81.13
26083;BME280;13848;49.018;12.078;2024-01-30T01:05:08;99158.63;;;-0.02;81.30
26083;BME280;13848;49.018;12.078;2024-01-30T01:07:34;99160.72;;;0.06;80.52
26083;BME280;13848;49.018;12.078;2024-01-30T01:10:00;99168.97;;;-0.21;81.39
26083;BME280;13848;49.018;12.078;2024-01-30T01:12:26;99156.34;;;-0.06;81.36
26083;BME280;13848;49.018;12.078;2024-01-30T01:14:52;99161.41;;;-0.14;81.22
26083;BME280;13848;49.018;12.078;2024-01-30T01:17:18;99165.72;;;-0.13;80.82
26083;BME280;13848;49.018;12.078;2024-01-30T01:19:44;99152.75;;;-0.05;80.72
26083;BME280;13848;49.018;12.078;2024-01-30T01:22:11;99158.41;;;0.02;80.89
26083;BME280;13848;49.018;12.078;2024-01-30T01:24:37;99158.28;;;0.03;81.03
26083;BME280;13848;49.018;12.078;2024-01-30T01:27:03;99164.53;;;-0.20;80.68
26083;BME280;13848;49.018;12.078;2024-01-30T01:29:29;99159.22;;;-0.20;82.26
26083;BME280;13848;49.018;12.078;2024-01-30T01:31:55;99167.19;;;-0.09;81.79
26083;BME280;13848;49.018;12.078;2024-01-30T01:34:21;99163.31;;;-0.28;82.25
26083;BME280;13848;49.018;12.078;2024-01-30T01:36:47;99165.00;;;-0.27;81.52
26083;BME280;13848;49.018;12.078;2024-01-30T01:39:15;99169.59;;;-0.17;81.75
26083;BME280;13848;49.018;12.078;2024-01-30T01:41:41;99159.69;;;-0.27;81.05
26083;BME280;13848;49.018;12.078;2024-01-30T01:44:07;99162.53;;;-0.41;82.53
26083;BME280;13848;49.018;12.078;2024-01-30T01:46:33;99160.63;;;-0.39;81.63
26083;BME280;13848;49.018;12.078;2024-01-30T01:49:02;99158.00;;;-0.28;82.68
26083;BME280;13848;49.018;12.078;2024-01-30T01:51:29;99158.00;;;-0.28;82.63
26083;BME280;13848;49.018;12.078;2024-01-30T01:53:57;99155.78;;;-0.45;82.70
26083;BME280;13848;49.018;12.078;2024-01-30T01:56:26;99153.66;;;-0.40;82.70
26083;BME280;13848;49.018;12.078;2024-01-30T01:58:54;99144.94;;;-0.42;82.50
26083;BME280;13848;49.018;12.078;2024-01-30T02:01:21;99146.63;;;-0.41;82.69
26083;BME280;13848;49.018;12.078;2024-01-30T02:03:48;99138.25;;;-0.35;81.97
26083;BME280;13848;49.018;12.078;2024-01-30T02:06:14;99143.03;;;-0.40;82.44
26083;BME280;13848;49.018;12.078;2024-01-30T02:08:41;99140.88;;;-0.46;81.53
26083;BME280;13848;49.018;12.078;2024-01-30T02:11:08;99151.72;;;-0.38;82.02
26083;BME280;13848;49.018;12.078;2024-01-30T02:13:35;99140.16;;;-0.37;82.39
26083;BME280;13848;49.018;12.078;2024-01-30T02:16:01;99153.19;;;-0.34;81.42
26083;BME280;13848;49.018;12.078;2024-01-30T02:18:27;99153.88;;;-0.43;82.40
26083;BME280;13848;49.018;12.078;2024-01-30T02:20:54;99149.28;;;-0.41;82.81
26083;BME280;13848;49.018;12.078;2024-01-30T02:23:24;99147.59;;;-0.42;82.15
26083;BME280;13848;49.018;12.078;2024-01-30T02:25:50;99151.19;;;-0.54;82.40
26083;BME280;13848;49.018;12.078;2024-01-30T02:28:16;99148.06;;;-0.48;82.29
26083;BME280;13848;49.018;12.078;2024-01-30T02:30:42;99141.81;;;-0.47;81.91
26083;BME280;13848;49.018;12.078;2024-01-30T02:33:08;99148.03;;;-0.59;83.36
26083;BME280;13848;49.018;12.078;2024-01-30T02:35:34;99144.91;;;-0.53;82.65
26083;BME280;13848;49.018;12.078;2024-01-30T02:38:00;99145.16;;;-0.56;83.57
26083;BME280;13848;49.018;12.078;2024-01-30T02:40:28;99142.72;;;-0.59;82.70
26083;BME280;13848;49.018;12.078;2024-01-30T02:42:54;99139.25;;;-0.60;81.80
26083;BME280;13848;49.018;12.078;2024-01-30T02:45:19;99144.19;;;-0.55;82.78
26083;BME280;13848;49.018;12.078;2024-01-30T02:47:45;99140.00;;;-0.58;82.23
26083;BME280;13848;49.018;12.078;2024-01-30T02:50:11;99143.47;;;-0.57;81.96
26083;BME280;13848;49.018;12.078;2024-01-30T02:52:37;99151.56;;;-0.47;82.28
26083;BME280;13848;49.018;12.078;2024-01-30T02:55:04;99143.72;;;-0.49;81.80
26083;BME280;13848;49.018;12.078;2024-01-30T02:57:31;99141.75;;;-0.58;81.96
26083;BME280;13848;49.018;12.078;2024-01-30T02:59:57;99145.84;;;-0.65;83.25
26083;BME280;13848;49.018;12.078;2024-01-30T03:02:23;99141.25;;;-0.74;83.06
26083;BME280;13848;49.018;12.078;2024-01-30T03:04:49;99148.94;;;-0.71;83.92
26083;BME280;13848;49.018;12.078;2024-01-30T03:07:15;99144.34;;;-0.81;83.88
26083;BME280;13848;49.018;12.078;2024-01-30T03:09:41;99141.75;;;-0.69;82.64
26083;BME280;13848;49.018;12.078;2024-01-30T03:12:07;99152.06;;;-0.77;83.39
26083;BME280;13848;49.018;12.078;2024-01-30T03:14:35;99148.38;;;-0.88;83.09
26083;BME280;13848;49.018;12.078;2024-01-30T03:17:01;99150.78;;;-0.96;84.20
26083;BME280;13848;49.018;12.078;2024-01-30T03:19:27;99151.94;;;-0.76;83.06
26083;BME280;13848;49.018;12.078;2024-01-30T03:21:52;99156.38;;;-0.76;82.45
26083;BME280;13848;49.018;12.078;2024-01-30T03:24:18;99149.69;;;-0.69;83.18
26083;BME280;13848;49.018;12.078;2024-01-30T03:26:44;99150.09;;;-0.87;83.53
26083;BME280;13848;49.018;12.078;2024-01-30T03:29:10;99157.41;;;-0.90;84.34
26083;BME280;13848;49.018;12.078;2024-01-30T03:31:38;99157.34;;;-0.77;83.47
26083;BME280;13848;49.018;12.078;2024-01-30T03:34:04;99156.63;;;-0.79;82.78
26083;BME280;13848;49.018;12.078;2024-01-30T03:36:30;99160.84;;;-0.77;82.55
26083;BME280;13848;49.018;12.078;2024-01-30T03:38:56;99159.28;;;-0.79;83.49
26083;BME280;13848;49.018;12.078;2024-01-30T03:41:22;99156.88;;;-0.71;82.56
26083;BME280;13848;49.018;12.078;2024-01-30T03:43:48;99154.75;;;-0.66;81.58
26083;BME280;13848;49.018;12.078;2024-01-30T03:46:14;99152.78;;;-0.75;83.39
26083;BME280;13848;49.018;12.078;2024-01-30T03:48:41;99150.63;;;-0.70;82.15
26083;BME280;13848;49.018;12.078;2024-01-30T03:51:07;99150.38;;;-0.78;82.78
26083;BME280;13848;49.018;12.078;2024-01-30T03:53:33;99155.94;;;-0.70;82.21
26083;BME280;13848;49.018;12.078;2024-01-30T03:55:59;99144.63;;;-0.72;82.03
26083;BME280;13848;49.018;12.078;2024-01-30T03:58:25;99152.25;;;-0.92;82.95
26083;BME280;13848;49.018;12.078;2024-01-30T04:00:51;99153.69;;;-0.88;82.18
26083;BME280;13848;49.018;12.078;2024-01-30T04:03:17;99152.53;;;-1.08;83.80
26083;BME280;13848;49.018;12.078;2024-01-30T04:05:45;99147.91;;;-0.93;83.37
26083;BME280;13848;49.018;12.078;2024-01-30T04:08:11;99149.28;;;-1.00;84.31
26083;BME280;13848;49.018;12.078;2024-01-30T04:10:37;99150.59;;;-1.05;84.57
26083;BME280;13848;49.018;12.078;2024-01-30T04:13:03;99144.47;;;-1.06;84.60
26083;BME280;13848;49.018;12.078;2024-01-30T04:15:29;99151.16;;;-1.13;84.80
26083;BME280;13848;49.018;12.078;2024-01-30T04:17:57;99146.50;;;-1.10;83.75
26083;BME280;13848;49.018;12.078;2024-01-30T04:20:23;99150.25;;;-1.01;84.16
26083;BME280;13848;49.018;12.078;2024-01-30T04:22:50;99144.69;;;-1.09;84.66
26083;BME280;13848;49.018;12.078;2024-01-30T04:25:16;99152.91;;;-1.01;83.85
26083;BME280;13848;49.018;12.078;2024-01-30T04:27:42;99155.03;;;-1.06;82.88
26083;BME280;13848;49.018;12.078;2024-01-30T04:30:09;99152.72;;;-1.11;84.81
26083;BME280;13848;49.018;12.078;2024-01-30T04:32:35;99151.69;;;-1.08;83.87
26083;BME280;13848;49.018;12.078;2024-01-30T04:35:01;99154.59;;;-1.00;83.90
26083;BME280;13848;49.018;12.078;2024-01-30T04:37:27;99144.25;;;-1.03;83.57
26083;BME280;13848;49.018;12.078;2024-01-30T04:39:55;99147.16;;;-0.95;83.68
26083;BME280;13848;49.018;12.078;2024-01-30T04:42:21;99151.22;;;-1.02;82.76
26083;BME280;13848;49.018;12.078;2024-01-30T04:44:46;99146.66;;;-1.00;83.78
26083;BME280;13848;49.018;12.078;2024-01-30T04:47:12;99145.94;;;-1.02;84.04
26083;BME280;13848;49.018;12.078;2024-01-30T04:49:39;99148.69;;;-1.03;84.38
26083;BME280;13848;49.018;12.078;2024-01-30T04:52:05;99148.31;;;-1.10;84.21
26083;BME280;13848;49.018;12.078;2024-01-30T04:54:31;99139.00;;;-1.16;85.22
26083;BME280;13848;49.018;12.078;2024-01-30T04:56:58;99135.78;;;-1.08;84.41
26083;BME280;13848;49.018;12.078;2024-01-30T04:59:24;99141.16;;;-1.21;85.31
26083;BME280;13848;49.018;12.078;2024-01-30T05:01:51;99141.91;;;-1.31;84.98
26083;BME280;13848;49.018;12.078;2024-01-30T05:04:17;99144.31;;;-1.16;84.00
26083;BME280;13848;49.018;12.078;2024-01-30T05:06:43;99143.44;;;-1.16;85.04
26083;BME280;13848;49.018;12.078;2024-01-30T05:09:09;99140.06;;;-1.18;85.57
26083;BME280;13848;49.018;12.078;2024-01-30T05:11:36;99142.00;;;-1.20;84.92
26083;BME280;13848;49.018;12.078;2024-01-30T05:14:04;99136.75;;;-1.33;85.90
26083;BME280;13848;49.018;12.078;2024-01-30T05:16:30;99138.88;;;-1.38;85.16
26083;BME280;13848;49.018;12.078;2024-01-30T05:18:56;99139.28;;;-1.31;84.77
26083;BME280;13848;49.018;12.078;2024-01-30T05:21:21;99138.53;;;-1.34;84.45
26083;BME280;13848;49.018;12.078;2024-01-30T05:23:47;99132.56;;;-1.24;84.73
26083;BME280;13848;49.018;12.078;2024-01-30T05:26:13;99136.13;;;-1.37;85.16
26083;BME280;13848;49.018;12.078;2024-01-30T05:28:39;99136.31;;;-1.40;85.68
26083;BME280;13848;49.018;12.078;2024-01-30T05:31:06;99135.72;;;-1.43;85.69
26083;BME280;13848;49.018;12.078;2024-01-30T05:33:32;99135.88;;;-1.34;85.12
26083;BME280;13848;49.018;12.078;2024-01-30T05:35:58;99143.31;;;-1.39;84.03
26083;BME280;13848;49.018;12.078;2024-01-30T05:38:24;99143.53;;;-1.42;84.31
26083;BME280;13848;49.018;12.078;2024-01-30T05:40:50;99140.00;;;-1.29;84.49
26083;BME280;13848;49.018;12.078;2024-01-30T05:43:16;99141.59;;;-1.40;85.05
26083;BME280;13848;49.018;12.078;2024-01-30T05:45:42;99140.19;;;-1.56;85.35
26083;BME280;13848;49.018;12.078;2024-01-30T05:48:09;99139.13;;;-1.54;85.36
26083;BME280;13848;49.018;12.078;2024-01-30T05:50:35;99136.31;;;-1.40;85.05
26083;BME280;13848;49.018;12.078;2024-01-30T05:53:01;99143.00;;;-1.47;85.46
26083;BME280;13848;49.018;12.078;2024-01-30T05:55:27;99150.41;;;-1.39;83.99
26083;BME280;13848;49.018;12.078;2024-01-30T05:57:53;99144.25;;;-1.40;84.13
26083;BME280;13848;49.018;12.078;2024-01-30T06:00:19;99140.97;;;-1.30;84.65
26083;BME280;13848;49.018;12.078;2024-01-30T06:02:45;99150.81;;;-1.32;85.36
26083;BME280;13848;49.018;12.078;2024-01-30T06:05:12;99153.47;;;-1.45;88.49
26083;BME280;13848;49.018;12.078;2024-01-30T06:07:38;99160.44;;;-1.31;87.22
26083;BME280;13848;49.018;12.078;2024-01-30T06:10:05;99165.16;;;-1.24;87.74
26083;BME280;13848;49.018;12.078;2024-01-30T06:12:32;99167.25;;;-1.16;86.71
26083;BME280;13848;49.018;12.078;2024-01-30T06:14:58;99166.97;;;-1.24;88.49
26083;BME280;13848;49.018;12.078;2024-01-30T06:17:23;99178.78;;;-1.17;88.90
26083;BME280;13848;49.018;12.078;2024-01-30T06:19:49;99174.03;;;-1.12;88.19
26083;BME280;13848;49.018;12.078;2024-01-30T06:22:17;99182.31;;;-0.93;88.89
26083;BME280;13848;49.018;12.078;2024-01-30T06:24:43;99180.97;;;-0.98;88.72
26083;BME280;13848;49.018;12.078;2024-01-30T06:27:09;99182.59;;;-0.85;87.29
26083;BME280;13848;49.018;12.078;2024-01-30T06:29:35;99176.28;;;-0.95;87.79
26083;BME280;13848;49.018;12.078;2024-01-30T06:32:01;99195.84;;;-0.85;86.87
26083;BME280;13848;49.018;12.078;2024-01-30T06:34:27;99188.84;;;-0.86;86.89
26083;BME280;13848;49.018;12.078;2024-01-30T06:36:53;99188.00;;;-0.86;86.47
26083;BME280;13848;49.018;12.078;2024-01-30T06:39:20;99187.38;;;-0.90;86.38
26083;BME280;13848;49.018;12.078;2024-01-30T06:41:46;99190.53;;;-0.85;86.89
26083;BME280;13848;49.018;12.078;2024-01-30T06:44:12;99184.63;;;-0.88;86.37
26083;BME280;13848;49.018;12.078;2024-01-30T06:46:38;99188.84;;;-0.86;86.53
26083;BME280;13848;49.018;12.078;2024-01-30T06:49:04;99180.53;;;-0.92;86.40
26083;BME280;13848;49.018;12.078;2024-01-30T06:51:31;99176.13;;;-0.81;86.36
26083;BME280;13848;49.018;12.078;2024-01-30T06:53:57;99184.16;;;-0.82;87.82
26083;BME280;13848;49.018;12.078;2024-01-30T06:56:24;99186.94;;;-0.84;87.26
26083;BME280;13848;49.018;12.078;2024-01-30T06:58:50;99183.16;;;-0.92;88.87
26083;BME280;13848;49.018;12.078;2024-01-30T07:01:16;99189.41;;;-0.69;87.84
26083;BME280;13848;49.018;12.078;2024-01-30T07:03:42;99194.34;;;-0.65;87.52
26083;BME280;13848;49.018;12.078;2024-01-30T07:06:09;99193.91;;;-0.83;87.12
26083;BME280;13848;49.018;12.078;2024-01-30T07:08:35;99196.84;;;-0.74;88.46
26083;BME280;13848;49.018;12.078;2024-01-30T07:11:01;99193.91;;;-0.83;88.16
26083;BME280;13848;49.018;12.078;2024-01-30T07:13:28;99193.63;;;-0.67;88.82
26083;BME280;13848;49.018;12.078;2024-01-30T07:15:54;99198.09;;;-0.67;89.02
26083;BME280;13848;49.018;12.078;2024-01-30T07:18:20;99196.59;;;-0.47;88.20
26083;BME280;13848;49.018;12.078;2024-01-30T07:20:46;99190.94;;;-0.43;87.61
26083;BME280;13848;49.018;12.078;2024-01-30T07:23:13;99191.53;;;-0.50;87.73
26083;BME280;13848;49.018;12.078;2024-01-30T07:25:39;99197.06;;;-0.77;89.33
26083;BME280;13848;49.018;12.078;2024-01-30T07:28:05;99195.50;;;-0.56;88.92
26083;BME280;13848;49.018;12.078;2024-01-30T07:30:32;99194.78;;;-0.47;88.70
26083;BME280;13848;49.018;12.078;2024-01-30T07:32:58;99193.50;;;-0.30;87.82
26083;BME280;13848;49.018;12.078;2024-01-30T07:35:24;99187.66;;;-0.22;86.64
26083;BME280;13848;49.018;12.078;2024-01-30T07:37:50;99194.59;;;-0.33;87.63
26083;BME280;13848;49.018;12.078;2024-01-30T07:40:17;99207.31;;;-0.49;89.17
26083;BME280;13848;49.018;12.078;2024-01-30T07:42:43;99203.09;;;-0.16;87.98
26083;BME280;13848;49.018;12.078;2024-01-30T07:45:09;99207.59;;;-0.30;87.85
26083;BME280;13848;49.018;12.078;2024-01-30T07:47:36;99205.78;;;-0.05;87.21
26083;BME280;13848;49.018;12.078;2024-01-30T07:50:03;99205.59;;;0.43;85.97
26083;BME280;13848;49.018;12.078;2024-01-30T07:52:29;99210.88;;;0.88;83.36
26083;BME280;13848;49.018;12.078;2024-01-30T07:54:55;99206.41;;;0.88;81.95
26083;BME280;13848;49.018;12.078;2024-01-30T07:57:21;99207.81;;;0.92;82.17
26083;BME280;13848;49.018;12.078;2024-01-30T07:59:47;99215.19;;;1.00;81.88
26083;BME280;13848;49.018;12.078;2024-01-30T08:02:13;99213.72;;;1.07;81.01
26083;BME280;13848;49.018;12.078;2024-01-30T08:04:41;99221.69;;;1.07;82.59
26083;BME280;13848;49.018;12.078;2024-01-30T08:07:07;99212.44;;;1.66;79.70
26083;BME280;13848;49.018;12.078;2024-01-30T08:09:33;99225.78;;;1.86;77.68
26083;BME280;13848;49.018;12.078;2024-01-30T08:11:59;99225.25;;;1.40;79.77
26083;BME280;13848;49.018;12.078;2024-01-30T08:14:25;99227.31;;;1.68;79.16
26083;BME280;13848;49.018;12.078;2024-01-30T08:16:50;99225.81;;;1.96;76.98
26083;BME280;13848;49.018;12.078;2024-01-30T08:19:17;99225.44;;;2.22;77.71
26083;BME280;13848;49.018;12.078;2024-01-30T08:21:44;99227.38;;;2.71;74.59
26083;BME280;13848;49.018;12.078;2024-01-30T08:24:10;99228.22;;;2.20;76.10
26083;BME280;13848;49.018;12.078;2024-01-30T08:26:36;99219.44;;;2.50;76.08
26083;BME280;13848;49.018;12.078;2024-01-30T08:29:02;99227.41;;;2.81;73.34
26083;BME280;13848;49.018;12.078;2024-01-30T08:31:28;99221.44;;;2.58;75.03
26083;BME280;13848;49.018;12.078;2024-01-30T08:33:54;99226.19;;;2.94;73.12
26083;BME280;13848;49.018;12.078;2024-01-30T08:36:20;99233.41;;;2.43;75.49
26083;BME280;13848;49.018;12.078;2024-01-30T08:38:47;99217.69;;;2.70;75.06
26083;BME280;13848;49.018;12.078;2024-01-30T08:41:13;99222.13;;;3.00;71.98
26083;BME280;13848;49.018;12.078;2024-01-30T08:43:39;99220.41;;;2.80;73.14
26083;BME280;13848;49.018;12.078;2024-01-30T08:46:05;99221.31;;;3.00;74.25
26083;BME280;13848;49.018;12.078;2024-01-30T08:48:31;99209.81;;;2.99;72.81
26083;BME280;13848;49.018;12.078;2024-01-30T08:50:57;99217.19;;;3.65;71.62
26083;BME280;13848;49.018;12.078;2024-01-30T08:53:23;99214.94;;;3.41;72.89
26083;BME280;13848;49.018;12.078;2024-01-30T08:55:50;99217.19;;;3.94;69.39
26083;BME280;13848;49.018;12.078;2024-01-30T08:58:16;99221.41;;;4.06;69.49
26083;BME280;13848;49.018;12.078;2024-01-30T09:00:42;99220.22;;;4.28;70.68
26083;BME280;13848;49.018;12.078;2024-01-30T09:03:08;99215.78;;;4.93;66.24
26083;BME280;13848;49.018;12.078;2024-01-30T09:05:34;99216.06;;;4.90;66.33
26083;BME280;13848;49.018;12.078;2024-01-30T09:08:00;99219.09;;;6.22;62.83
26083;BME280;13848;49.018;12.078;2024-01-30T09:10:26;99210.41;;;6.80;59.55
26083;BME280;13848;49.018;12.078;2024-01-30T09:12:53;99226.50;;;6.54;58.59
26083;BME280;13848;49.018;12.078;2024-01-30T09:15:19;99220.78;;;6.75;61.22
26083;BME280;13848;49.018;12.078;2024-01-30T09:17:45;99222.91;;;7.05;57.76
26083;BME280;13848;49.018;12.078;2024-01-30T09:20:11;99223.94;;;5.65;64.01
26083;BME280;13848;49.018;12.078;2024-01-30T09:22:37;99230.50;;;5.88;60.60
26083;BME280;13848;49.018;12.078;2024-01-30T09:25:04;99228.34;;;6.53;60.79
26083;BME280;13848;49.018;12.078;2024-01-30T09:27:30;99228.47;;;6.44;58.46
26083;BME280;13848;49.018;12.078;2024-01-30T09:29:57;99223.66;;;6.03;59.18
26083;BME280;13848;49.018;12.078;2024-01-30T09:32:23;99228.41;;;5.92;60.67
26083;BME280;13848;49.018;12.078;2024-01-30T09:34:49;99231.75;;;5.94;60.97
26083;BME280;13848;49.018;12.078;2024-01-30T09:37:15;99231.91;;;6.36;59.11
26083;BME280;13848;49.018;12.078;2024-01-30T09:39:41;99227.72;;;6.33;60.13
26083;BME280;13848;49.018;12.078;2024-01-30T09:42:14;99219.47;;;7.21;56.42
26083;BME280;13848;49.018;12.078;2024-01-30T09:44:44;99220.38;;;7.46;56.92
26083;BME280;13848;49.018;12.078;2024-01-30T09:47:11;99223.28;;;7.18;56.83
26083;BME280;13848;49.018;12.078;2024-01-30T09:49:38;99227.81;;;7.18;57.17
26083;BME280;13848;49.018;12.078;2024-01-30T09:52:05;99219.22;;;7.57;55.93
26083;BME280;13848;49.018;12.078;2024-01-30T09:54:31;99225.47;;;7.73;54.74
26083;BME280;13848;49.018;12.078;2024-01-30T09:56:57;99221.59;;;7.09;55.94
26083;BME280;13848;49.018;12.078;2024-01-30T09:59:23;99221.16;;;6.88;56.18
26083;BME280;13848;49.018;12.078;2024-01-30T10:01:50;99229.03;;;6.55;57.55
26083;BME280;13848;49.018;12.078;2024-01-30T10:04:17;99234.94;;;6.93;56.57
26083;BME280;13848;49.018;12.078;2024-01-30T10:06:43;99228.34;;;6.53;58.27
26083;BME280;13848;49.018;12.078;2024-01-30T10:09:09;99219.09;;;8.64;55.30
26083;BME280;13848;49.018;12.078;2024-01-30T10:11:36;99219.25;;;9.10;52.45
26083;BME280;13848;49.018;12.078;2024-01-30T10:14:02;99223.63;;;9.11;50.59
26083;BME280;13848;49.018;12.078;2024-01-30T10:16:28;99222.50;;;8.97;51.46
26083;BME280;13848;49.018;12.078;2024-01-30T10:18:54;99212.97;;;9.57;51.17
26083;BME280;13848;49.018;12.078;2024-01-30T10:21:21;99216.56;;;9.10;52.00
26083;BME280;13848;49.018;12.078;2024-01-30T10:23:47;99221.28;;;7.95;55.18
26083;BME280;13848;49.018;12.078;2024-01-30T10:26:13;99211.22;;;9.02;52.07
26083;BME280;13848;49.018;12.078;2024-01-30T10:28:41;99205.00;;;8.05;52.79
26083;BME280;13848;49.018;12.078;2024-01-30T10:31:07;99208.38;;;8.23;53.52
26083;BME280;13848;49.018;12.078;2024-01-30T10:33:33;99211.88;;;8.40;53.42
26083;BME280;13848;49.018;12.078;2024-01-30T10:36:01;99211.88;;;9.04;51.74
26083;BME280;13848;49.018;12.078;2024-01-30T10:38:30;99199.94;;;9.06;50.99
26083;BME280;13848;49.018;12.078;2024-01-30T10:40:57;99197.69;;;9.80;49.57
26083;BME280;13848;49.018;12.078;2024-01-30T10:43:24;99194.44;;;9.00;50.45
26083;BME280;13848;49.018;12.078;2024-01-30T10:45:56;99201.34;;;9.33;50.75
26083;BME280;13848;49.018;12.078;2024-01-30T10:48:26;99192.84;;;10.13;49.02
26083;BME280;13848;49.018;12.078;2024-01-30T10:50:55;99193.16;;;9.50;48.88
26083;BME280;13848;49.018;12.078;2024-01-30T10:53:22;99187.38;;;8.99;50.77
26083;BME280;13848;49.018;12.078;2024-01-30T10:55:51;99177.72;;;10.65;48.41
26083;BME280;13848;49.018;12.078;2024-01-30T10:58:17;99182.81;;;9.62;50.04
26083;BME280;13848;49.018;12.078;2024-01-30T11:00:44;99178.97;;;9.56;50.78
26083;BME280;13848;49.018;12.078;2024-01-30T11:03:10;99176.41;;;12.20;44.75
26083;BME280;13848;49.018;12.078;2024-01-30T11:05:40;99173.53;;;10.77;48.26
26083;BME280;13848;49.018;12.078;2024-01-30T11:08:12;99175.84;;;10.95;45.95
26083;BME280;13848;49.018;12.078;2024-01-30T11:10:45;99170.94;;;10.69;46.04
26083;BME280;13848;49.018;12.078;2024-01-30T11:13:15;99178.00;;;10.18;47.42
26083;BME280;13848;49.018;12.078;2024-01-30T11:15:41;99167.31;;;10.62;47.97
26083;BME280;13848;49.018;12.078;2024-01-30T11:18:07;99161.34;;;12.39;45.05
26083;BME280;13848;49.018;12.078;2024-01-30T11:20:33;99164.09;;;11.17;45.98
26083;BME280;13848;49.018;12.078;2024-01-30T11:22:59;99156.16;;;10.80;46.47
26083;BME280;13848;49.018;12.078;2024-01-30T11:25:25;99155.06;;;11.46;45.96
26083;BME280;13848;49.018;12.078;2024-01-30T11:27:53;99158.81;;;11.45;44.54
26083;BME280;13848;49.018;12.078;2024-01-30T11:30:24;99162.56;;;11.66;44.90
26083;BME280;13848;49.018;12.078;2024-01-30T11:33:00;99157.00;;;11.31;45.58
26083;BME280;13848;49.018;12.078;2024-01-30T11:35:27;99155.22;;;10.73;46.64
26083;BME280;13848;49.018;12.078;2024-01-30T11:37:54;99151.38;;;10.82;47.13
26083;BME280;13848;49.018;12.078;2024-01-30T11:40:21;99149.63;;;11.61;45.62
26083;BME280;13848;49.018;12.078;2024-01-30T11:42:47;99143.91;;;12.14;43.02
26083;BME280;13848;49.018;12.078;2024-01-30T11:45:14;99144.97;;;12.47;43.54
26083;BME280;13848;49.018;12.078;2024-01-30T11:47:41;99142.94;;;12.56;44.21
26083;BME280;13848;49.018;12.078;2024-01-30T11:50:08;99151.25;;;12.89;42.51
26083;BME280;13848;49.018;12.078;2024-01-30T11:52:34;99148.03;;;11.67;44.37
26083;BME280;13848;49.018;12.078;2024-01-30T11:55:00;99133.44;;;13.82;40.39
26083;BME280;13848;49.018;12.078;2024-01-30T11:57:27;99129.22;;;12.58;42.05
26083;BME280;13848;49.018;12.078;2024-01-30T11:59:53;99129.13;;;12.44;42.58
26083;BME280;13848;49.018;12.078;2024-01-30T12:02:19;99135.25;;;11.39;44.83
26083;BME280;13848;49.018;12.078;2024-01-30T12:04:46;99127.53;;;11.15;44.39
26083;BME280;13848;49.018;12.078;2024-01-30T12:07:12;99130.59;;;11.12;44.33
26083;BME280;13848;49.018;12.078;2024-01-30T12:09:39;99124.94;;;12.35;42.28
26083;BME280;13848;49.018;12.078;2024-01-30T12:12:06;99118.03;;;11.19;44.04
26083;BME280;13848;49.018;12.078;2024-01-30T12:14:32;99120.81;;;11.11;44.96
26083;BME280;13848;49.018;12.078;2024-01-30T12:16:58;99118.34;;;10.95;44.40
26083;BME280;13848;49.018;12.078;2024-01-30T12:19:25;99111.75;;;10.23;45.68
26083;BME280;13848;49.018;12.078;2024-01-30T12:21:55;99115.66;;;9.60;48.12
26083;BME280;13848;49.018;12.078;2024-01-30T12:24:22;99116.66;;;9.13;49.21
26083;BME280;13848;49.018;12.078;2024-01-30T12:26:48;99126.56;;;9.44;49.37
26083;BME280;13848;49.018;12.078;2024-01-30T12:29:14;99100.03;;;10.75;46.48
26083;BME280;13848;49.018;12.078;2024-01-30T12:31:42;99113.44;;;10.54;45.55
26083;BME280;13848;49.018;12.078;2024-01-30T12:34:08;99108.69;;;9.89;48.45
26083;BME280;13848;49.018;12.078;2024-01-30T12:36:34;99101.50;;;10.92;46.09
26083;BME280;13848;49.018;12.078;2024-01-30T12:39:01;99105.75;;;10.51;45.97
26083;BME280;13848;49.018;12.078;2024-01-30T12:41:27;99099.94;;;10.83;45.76
26083;BME280;13848;49.018;12.078;2024-01-30T12:43:53;99103.72;;;11.04;44.79
26083;BME280;13848;49.018;12.078;2024-01-30T12:46:19;99097.81;;;11.36;44.40
26083;BME280;13848;49.018;12.078;2024-01-30T12:48:45;99103.03;;;10.80;44.68